createdAt,value
2022-07-30T00:00:29.826Z,587.5
2022-07-30T00:02:37.922Z,587.3
2022-07-30T00:03:40.741Z,587.3
2022-07-30T00:04:43.004Z,587.3
2022-07-30T00:05:45.469Z,587.2
2022-07-30T00:06:47.397Z,587.6
2022-07-30T00:07:49.857Z,587.4
2022-07-30T00:08:52.052Z,587.3
2022-07-30T00:09:54.258Z,587.9
2022-07-30T00:10:56.456Z,587.7
2022-07-30T00:13:04.684Z,588
2022-07-30T00:14:07.160Z,588.3
2022-07-30T00:15:09.656Z,588.7
2022-07-30T00:16:12.171Z,588.6
2022-07-30T00:17:17.891Z,589.2
2022-07-30T00:19:28.002Z,589
2022-07-30T00:22:41.625Z,589.2
2022-07-30T00:24:48.829Z,588.9
2022-07-30T00:25:51.054Z,588.9
2022-07-30T00:26:53.264Z,589.2
2022-07-30T00:27:55.751Z,588.7
2022-07-30T00:28:58.239Z,589.2
2022-07-30T00:30:00.181Z,589.2
2022-07-30T00:31:02.497Z,588.8
2022-07-30T00:32:05.301Z,589.1
2022-07-30T00:33:10.036Z,589.4
2022-07-30T00:34:12.702Z,589.3
2022-07-30T00:35:14.880Z,589.4
2022-07-30T00:36:16.784Z,589.5
2022-07-30T00:37:18.977Z,589.3
2022-07-30T00:38:21.444Z,589.5
2022-07-30T00:39:23.355Z,589.8
2022-07-30T00:40:25.824Z,589.7
2022-07-30T00:41:28.301Z,589.4
2022-07-30T00:42:30.769Z,589.2
2022-07-30T00:43:32.398Z,589.7
2022-07-30T00:44:34.868Z,589.1
2022-07-30T00:45:37.713Z,589.5
2022-07-30T00:46:40.221Z,589.2
2022-07-30T00:47:42.428Z,589
2022-07-30T00:48:45.240Z,589.5
2022-07-30T00:49:47.447Z,589.3
2022-07-30T00:50:51.227Z,589.7
2022-07-30T00:51:53.335Z,589.7
2022-07-30T00:52:55.809Z,589.8
2022-07-30T00:53:58.283Z,589.7
2022-07-30T00:55:00.487Z,590.1
2022-07-30T00:56:03.058Z,589.9
2022-07-30T00:57:05.376Z,590
2022-07-30T00:58:07.850Z,590.2
2022-07-30T00:59:11.817Z,589.7
2022-07-30T01:00:14.314Z,589.9
2022-07-30T01:01:17.303Z,589.8
2022-07-30T01:02:20.150Z,589.9
2022-07-30T01:03:22.366Z,590
2022-07-30T01:04:24.549Z,590.3
2022-07-30T01:05:27.028Z,589.9
2022-07-30T01:06:29.228Z,589.9
2022-07-30T01:07:31.151Z,590
2022-07-30T01:08:33.336Z,589.7
2022-07-30T01:09:36.009Z,590
2022-07-30T01:10:37.913Z,590
2022-07-30T01:11:39.813Z,589.9
2022-07-30T01:12:42.064Z,590.2
2022-07-30T01:13:44.277Z,590.1
2022-07-30T01:14:46.746Z,590.4
2022-07-30T01:15:49.212Z,590.6
2022-07-30T01:16:51.803Z,590.5
2022-07-30T01:17:54.951Z,590.7
2022-07-30T01:18:57.157Z,590.7
2022-07-30T01:19:59.525Z,590.5
2022-07-30T01:21:01.995Z,590.7
2022-07-30T01:22:04.198Z,590.7
2022-07-30T01:23:06.099Z,590.7
2022-07-30T01:24:08.279Z,590.9
2022-07-30T01:25:10.470Z,590.7
2022-07-30T01:26:12.687Z,590.5
2022-07-30T01:28:20.488Z,590.8
2022-07-30T01:29:22.678Z,591
2022-07-30T01:30:25.150Z,591.1
2022-07-30T01:31:27.463Z,591.4
2022-07-30T01:32:29.697Z,591.3
2022-07-30T01:33:31.614Z,591.8
2022-07-30T01:34:34.109Z,591.4
2022-07-30T01:35:36.309Z,591.2
2022-07-30T01:36:38.505Z,591.4
2022-07-30T01:37:40.701Z,591.5
2022-07-30T01:38:42.903Z,591.7
2022-07-30T01:39:45.094Z,591.3
2022-07-30T01:40:47.001Z,591.1
2022-07-30T01:41:49.211Z,591.3
2022-07-30T01:42:50.865Z,591.1
2022-07-30T01:43:53.065Z,591.2
2022-07-30T01:44:54.967Z,591.1
2022-07-30T01:45:57.564Z,591.1
2022-07-30T01:47:02.166Z,591.5
2022-07-30T01:48:04.926Z,591.5
2022-07-30T01:50:13.782Z,591.3
2022-07-30T01:51:15.981Z,591.7
2022-07-30T01:52:18.181Z,591.4
2022-07-30T01:53:20.377Z,591.8
2022-07-30T01:54:22.859Z,591.6
2022-07-30T01:55:24.801Z,591.6
2022-07-30T01:56:27.278Z,591.2
2022-07-30T01:57:29.474Z,591.5
2022-07-30T01:58:31.682Z,591.4
2022-07-30T01:59:33.583Z,591.5
2022-07-30T02:00:36.361Z,591.6
2022-07-30T02:01:38.864Z,591.6
2022-07-30T02:02:41.334Z,591.6
2022-07-30T02:03:44.174Z,591.3
2022-07-30T02:04:46.676Z,591.7
2022-07-30T02:05:48.590Z,591.7
2022-07-30T02:06:51.694Z,592
2022-07-30T02:07:54.211Z,591.8
2022-07-30T02:08:56.686Z,591.6
2022-07-30T02:09:58.681Z,591.4
2022-07-30T02:11:00.603Z,591.4
2022-07-30T02:12:03.077Z,591.7
2022-07-30T02:13:05.553Z,591.6
2022-07-30T02:14:07.760Z,591.5
2022-07-30T02:15:09.955Z,591.6
2022-07-30T02:16:11.931Z,591.4
2022-07-30T02:20:33.608Z,591.2
2022-07-30T02:21:38.939Z,590.9
2022-07-30T02:22:40.846Z,591
2022-07-30T02:23:43.329Z,591.3
2022-07-30T02:24:45.532Z,591.2
2022-07-30T02:25:47.453Z,591.5
2022-07-30T02:26:49.648Z,591.3
2022-07-30T02:27:51.569Z,591.6
2022-07-30T02:28:54.053Z,591.3
2022-07-30T02:29:57.505Z,591.7
2022-07-30T02:30:59.975Z,591.6
2022-07-30T02:32:01.888Z,591.8
2022-07-30T02:33:04.079Z,592.2
2022-07-30T02:34:06.269Z,591.9
2022-07-30T02:35:08.754Z,592.1
2022-07-30T02:36:13.625Z,592.4
2022-07-30T02:38:23.706Z,591.5
2022-07-30T02:39:26.175Z,591.5
2022-07-30T02:40:28.659Z,591.6
2022-07-30T02:41:31.133Z,591.2
2022-07-30T02:42:33.606Z,590.7
2022-07-30T02:44:40.818Z,590.6
2022-07-30T02:45:43.289Z,590.3
2022-07-30T02:46:45.764Z,590.7
2022-07-30T02:47:48.236Z,590.6
2022-07-30T02:48:50.338Z,591
2022-07-30T02:49:52.568Z,591.1
2022-07-30T02:50:54.472Z,591.6
2022-07-30T02:51:56.399Z,591
2022-07-30T02:52:58.033Z,591.3
2022-07-30T02:54:00.567Z,591.6
2022-07-30T02:55:02.766Z,591.6
2022-07-30T02:56:04.964Z,591.9
2022-07-30T02:57:07.448Z,592.3
2022-07-30T02:58:09.918Z,591.9
2022-07-30T02:59:12.124Z,591.8
2022-07-30T03:00:14.321Z,591.8
2022-07-30T03:01:16.947Z,592
2022-07-30T03:03:23.938Z,592.2
2022-07-30T03:04:26.410Z,592.1
2022-07-30T03:05:28.625Z,591.9
2022-07-30T03:06:31.092Z,591.9
2022-07-30T03:07:33.570Z,591.7
2022-07-30T03:08:35.498Z,592
2022-07-30T03:10:42.963Z,592.3
2022-07-30T03:11:45.437Z,592.2
2022-07-30T03:12:47.350Z,592.4
2022-07-30T03:13:49.259Z,592
2022-07-30T03:14:51.456Z,592.1
2022-07-30T03:15:53.795Z,592
2022-07-30T03:16:56.013Z,592.3
2022-07-30T03:17:58.496Z,592.2
2022-07-30T03:19:00.404Z,592.5
2022-07-30T03:20:02.700Z,592.3
2022-07-30T03:21:04.872Z,592.1
2022-07-30T03:22:06.786Z,592.6
2022-07-30T03:23:08.994Z,592.6
2022-07-30T03:24:11.489Z,592.7
2022-07-30T03:25:13.960Z,592.7
2022-07-30T03:26:15.862Z,592.6
2022-07-30T03:27:18.346Z,592.6
2022-07-30T03:28:20.827Z,593
2022-07-30T03:29:23.621Z,593
2022-07-30T03:30:26.414Z,592.9
2022-07-30T03:32:38.009Z,592.8
2022-07-30T03:33:41.156Z,593
2022-07-30T03:35:50.756Z,592.9
2022-07-30T03:36:52.956Z,593
2022-07-30T03:37:55.152Z,592.8
2022-07-30T03:38:57.082Z,592.7
2022-07-30T03:39:59.276Z,592.7
2022-07-30T03:41:01.200Z,592.9
2022-07-30T03:42:04.207Z,592.7
2022-07-30T03:44:11.679Z,591.9
2022-07-30T03:45:13.873Z,592.2
2022-07-30T03:46:16.688Z,591.9
2022-07-30T03:47:19.175Z,591.4
2022-07-30T03:48:21.095Z,591.7
2022-07-30T03:49:23.641Z,591.8
2022-07-30T03:50:26.150Z,591.1
2022-07-30T03:52:33.636Z,591.3
2022-07-30T03:53:35.826Z,591.3
2022-07-30T03:54:38.296Z,591.3
2022-07-30T03:55:40.501Z,591
2022-07-30T03:56:42.968Z,591.4
2022-07-30T03:57:45.434Z,591.1
2022-07-30T03:58:47.906Z,591.3
2022-07-30T03:59:49.822Z,591
2022-07-30T04:00:52.307Z,591
2022-07-30T04:01:54.624Z,590.8
2022-07-30T04:02:56.585Z,590.6
2022-07-30T04:03:59.430Z,590
2022-07-30T04:05:01.983Z,590
2022-07-30T04:06:04.212Z,589.6
2022-07-30T04:07:06.886Z,589.4
2022-07-30T04:08:09.579Z,589.4
2022-07-30T04:09:12.484Z,589
2022-07-30T04:10:14.431Z,589.1
2022-07-30T04:11:16.375Z,588.9
2022-07-30T04:12:19.022Z,588.7
2022-07-30T04:13:21.196Z,588.5
2022-07-30T04:14:23.674Z,588.2
2022-07-30T04:17:36.251Z,587.8
2022-07-30T04:18:38.450Z,587.6
2022-07-30T04:19:40.919Z,587.6
2022-07-30T04:20:43.097Z,587.6
2022-07-30T04:21:45.282Z,587.3
2022-07-30T04:22:47.460Z,587.4
2022-07-30T04:24:54.111Z,587.3
2022-07-30T04:25:56.578Z,587
2022-07-30T04:27:00.577Z,586.7
2022-07-30T04:29:07.923Z,586.4
2022-07-30T04:30:10.131Z,586.3
2022-07-30T04:31:12.942Z,586.1
2022-07-30T04:32:15.187Z,586
2022-07-30T04:33:17.394Z,585.7
2022-07-30T04:34:19.854Z,585.8
2022-07-30T04:36:27.024Z,585.8
2022-07-30T04:37:29.212Z,585.8
2022-07-30T04:38:31.407Z,585.4
2022-07-30T04:39:33.880Z,585.3
2022-07-30T04:40:36.346Z,585
2022-07-30T04:42:43.266Z,585.5
2022-07-30T04:43:45.738Z,585.1
2022-07-30T04:44:47.939Z,585.3
2022-07-30T04:45:50.411Z,585.3
2022-07-30T04:46:53.429Z,585.5
2022-07-30T04:47:59.200Z,585.4
2022-07-30T04:49:01.977Z,585.1
2022-07-30T04:50:04.491Z,585.2
2022-07-30T04:51:06.973Z,585.2
2022-07-30T04:52:08.865Z,585.2
2022-07-30T04:53:11.344Z,585.2
2022-07-30T04:55:18.813Z,585.1
2022-07-30T04:56:20.986Z,585
2022-07-30T04:57:22.887Z,585
2022-07-30T04:58:25.361Z,584.8
2022-07-30T04:59:27.581Z,584.8
2022-07-30T05:02:40.059Z,584.9
2022-07-30T05:03:42.269Z,584.9
2022-07-30T05:04:44.742Z,584.5
2022-07-30T05:05:46.980Z,585.1
2022-07-30T05:06:49.466Z,584.5
2022-07-30T05:07:51.386Z,584.3
2022-07-30T05:08:53.568Z,584.8
2022-07-30T05:09:55.222Z,584.7
2022-07-30T05:10:56.847Z,584.5
2022-07-30T05:11:59.046Z,584.5
2022-07-30T05:13:01.920Z,584.8
2022-07-30T05:14:03.821Z,584.5
2022-07-30T05:15:06.295Z,584.6
2022-07-30T05:16:08.597Z,584.6
2022-07-30T05:17:11.108Z,584.5
2022-07-30T05:18:13.006Z,584.4
2022-07-30T05:19:14.938Z,584.9
2022-07-30T05:20:18.148Z,584.7
2022-07-30T05:21:20.635Z,584.5
2022-07-30T05:22:22.828Z,584.6
2022-07-30T05:23:25.046Z,584.3
2022-07-30T05:24:26.947Z,584.1
2022-07-30T05:25:29.424Z,583.9
2022-07-30T05:26:31.629Z,583.8
2022-07-30T05:27:33.829Z,583.8
2022-07-30T05:29:50.667Z,584.1
2022-07-30T05:30:53.990Z,583.7
2022-07-30T05:34:06.945Z,583.4
2022-07-30T05:35:09.144Z,583.5
2022-07-30T05:36:11.625Z,583.3
2022-07-30T05:37:14.413Z,583.4
2022-07-30T05:38:16.044Z,583
2022-07-30T05:39:18.336Z,582.7
2022-07-30T05:40:20.528Z,583.1
2022-07-30T05:42:27.455Z,583.3
2022-07-30T05:43:29.380Z,582.9
2022-07-30T05:44:31.315Z,583.2
2022-07-30T05:45:33.219Z,583.1
2022-07-30T05:46:36.365Z,583
2022-07-30T05:47:38.565Z,583
2022-07-30T05:48:40.933Z,582.7
2022-07-30T05:50:48.964Z,582.8
2022-07-30T05:51:52.506Z,582.8
2022-07-30T05:52:54.993Z,582.4
2022-07-30T05:53:57.179Z,582.7
2022-07-30T05:54:59.665Z,582.5
2022-07-30T05:56:02.133Z,581.9
2022-07-30T05:57:05.558Z,582.3
2022-07-30T05:58:08.027Z,582
2022-07-30T05:59:10.228Z,582.2
2022-07-30T06:00:12.833Z,581.7
2022-07-30T06:01:15.545Z,581.4
2022-07-30T06:02:18.048Z,581.7
2022-07-30T06:03:20.252Z,581.5
2022-07-30T06:04:23.012Z,581.1
2022-07-30T06:05:25.491Z,581.1
2022-07-30T06:06:27.695Z,580.8
2022-07-30T06:07:30.168Z,581
2022-07-30T06:08:32.370Z,580.5
2022-07-30T06:10:39.288Z,580.6
2022-07-30T06:11:41.188Z,580.7
2022-07-30T06:12:43.507Z,580.7
2022-07-30T06:13:45.406Z,580.2
2022-07-30T06:14:47.605Z,580.5
2022-07-30T06:15:50.447Z,580.4
2022-07-30T06:16:52.654Z,580.3
2022-07-30T06:18:59.855Z,579.8
2022-07-30T06:20:02.380Z,579.9
2022-07-30T06:21:04.853Z,579.9
2022-07-30T06:22:09.117Z,579.8
2022-07-30T06:23:11.312Z,579.7
2022-07-30T06:24:13.498Z,580.1
2022-07-30T06:26:20.689Z,580
2022-07-30T06:27:22.878Z,579.8
2022-07-30T06:29:30.351Z,579.1
2022-07-30T06:30:33.706Z,579.3
2022-07-30T06:31:36.004Z,579.3
2022-07-30T06:32:38.497Z,579
2022-07-30T06:33:40.414Z,578.9
2022-07-30T06:34:42.707Z,579
2022-07-30T06:35:44.923Z,579.1
2022-07-30T06:36:47.427Z,579.1
2022-07-30T06:38:54.640Z,579
2022-07-30T06:42:06.590Z,578.4
2022-07-30T06:43:08.514Z,578.3
2022-07-30T06:44:10.731Z,578.5
2022-07-30T06:45:13.202Z,578.3
2022-07-30T06:46:15.735Z,577.9
2022-07-30T06:47:18.452Z,578.6
2022-07-30T06:48:20.395Z,578.2
2022-07-30T06:49:22.629Z,577.8
2022-07-30T06:50:24.909Z,578.2
2022-07-30T06:51:27.116Z,577.9
2022-07-30T06:52:29.587Z,577.3
2022-07-30T06:53:32.055Z,577.6
2022-07-30T06:54:34.255Z,577.4
2022-07-30T06:55:36.731Z,577.4
2022-07-30T06:56:39.207Z,577.4
2022-07-30T06:58:46.677Z,577.3
2022-07-30T07:00:53.629Z,577.2
2022-07-30T07:01:56.330Z,577.1
2022-07-30T07:02:58.817Z,577
2022-07-30T07:04:01.641Z,577.1
2022-07-30T07:05:03.896Z,576.9
2022-07-30T07:06:05.526Z,577.2
2022-07-30T07:08:13.004Z,576.9
2022-07-30T07:09:14.908Z,576.8
2022-07-30T07:10:17.386Z,576.6
2022-07-30T07:11:19.622Z,577
2022-07-30T07:12:21.807Z,577.1
2022-07-30T07:13:23.726Z,576.8
2022-07-30T07:14:25.934Z,577.1
2022-07-30T07:16:33.528Z,577.1
2022-07-30T07:17:35.226Z,577.2
2022-07-30T07:18:37.709Z,576.8
2022-07-30T07:20:44.975Z,577.3
2022-07-30T07:21:47.446Z,577
2022-07-30T07:22:50.316Z,577
2022-07-30T07:23:52.784Z,577.1
2022-07-30T07:24:55.269Z,577
2022-07-30T07:25:58.718Z,576.4
2022-07-30T07:27:03.250Z,576.9
2022-07-30T07:29:10.669Z,576.9
2022-07-30T07:30:13.552Z,576.6
2022-07-30T07:32:21.025Z,576.4
2022-07-30T07:33:22.947Z,576.3
2022-07-30T07:34:26.695Z,576.6
2022-07-30T07:35:28.878Z,576.9
2022-07-30T07:36:31.094Z,576.5
2022-07-30T07:37:33.015Z,576.9
2022-07-30T07:38:35.216Z,576.8
2022-07-30T07:40:42.411Z,576.7
2022-07-30T07:42:49.877Z,576.7
2022-07-30T07:43:52.082Z,576.8
2022-07-30T07:44:54.556Z,576.2
2022-07-30T07:45:56.960Z,576.6
2022-07-30T07:47:00.587Z,576.6
2022-07-30T07:48:03.049Z,576.9
2022-07-30T07:49:05.699Z,577
2022-07-30T07:50:08.123Z,576.9
2022-07-30T07:51:11.702Z,576.9
2022-07-30T07:52:13.607Z,576.6
2022-07-30T07:53:15.793Z,576.5
2022-07-30T07:55:24.581Z,576.8
2022-07-30T07:56:28.412Z,577.4
2022-07-30T07:57:32.768Z,576.9
2022-07-30T07:59:42.506Z,577
2022-07-30T08:00:44.977Z,577.5
2022-07-30T08:01:50.452Z,577.6
2022-07-30T08:02:53.122Z,577.6
2022-07-30T08:03:55.371Z,578.1
2022-07-30T08:04:57.013Z,577.7
2022-07-30T08:07:06.403Z,577.1
2022-07-30T08:08:08.597Z,577.2
2022-07-30T08:09:10.864Z,577.4
2022-07-30T08:10:12.786Z,577.2
2022-07-30T08:11:15.000Z,577.5
2022-07-30T08:12:17.205Z,577.2
2022-07-30T08:14:24.406Z,576.8
2022-07-30T08:15:26.589Z,577.1
2022-07-30T08:16:29.029Z,577.2
2022-07-30T08:17:31.261Z,577.1
2022-07-30T08:18:33.731Z,576.7
2022-07-30T08:19:36.285Z,576.7
2022-07-30T08:20:38.221Z,576.5
2022-07-30T08:21:40.399Z,576.7
2022-07-30T08:22:42.329Z,576.6
2022-07-30T08:23:44.530Z,576.4
2022-07-30T08:24:46.734Z,576.3
2022-07-30T08:25:49.211Z,576.8
2022-07-30T08:26:50.872Z,576.9
2022-07-30T08:27:58.141Z,576.8
2022-07-30T08:29:00.344Z,576.6
2022-07-30T08:30:02.535Z,577.1
2022-07-30T08:31:05.073Z,577
2022-07-30T08:32:07.757Z,576.9
2022-07-30T08:33:09.966Z,577.3
2022-07-30T08:34:12.462Z,577.5
2022-07-30T08:35:14.665Z,577
2022-07-30T08:36:16.875Z,577
2022-07-30T08:37:18.531Z,577.2
2022-07-30T08:38:21.050Z,577
2022-07-30T08:39:23.592Z,577.1
2022-07-30T08:40:26.081Z,577
2022-07-30T08:41:28.280Z,576.8
2022-07-30T08:42:29.928Z,576.4
2022-07-30T08:43:32.405Z,576.9
2022-07-30T08:44:34.886Z,577
2022-07-30T08:45:36.874Z,577
2022-07-30T08:46:39.362Z,576.9
2022-07-30T08:47:41.576Z,577.2
2022-07-30T08:48:44.331Z,577.1
2022-07-30T08:49:46.563Z,576.5
2022-07-30T08:50:48.762Z,576
2022-07-30T08:51:50.142Z,576.2
2022-07-30T08:52:52.614Z,576.4
2022-07-30T08:53:54.243Z,576.6
2022-07-30T08:54:56.178Z,576.9
2022-07-30T08:56:00.459Z,576.9
2022-07-30T08:58:08.589Z,577
2022-07-30T08:59:10.786Z,576.6
2022-07-30T09:00:12.987Z,576.8
2022-07-30T09:01:15.480Z,576.6
2022-07-30T09:03:22.387Z,576
2022-07-30T09:04:26.556Z,576.1
2022-07-30T09:05:28.460Z,576.1
2022-07-30T09:06:30.930Z,576.4
2022-07-30T09:07:34.225Z,576.1
2022-07-30T09:08:36.421Z,575.6
2022-07-30T09:09:38.622Z,575.9
2022-07-30T09:11:45.823Z,575.6
2022-07-30T09:12:48.304Z,575.7
2022-07-30T09:13:50.505Z,576
2022-07-30T09:14:53.001Z,575.7
2022-07-30T09:15:55.204Z,575.2
2022-07-30T09:16:57.414Z,575.8
2022-07-30T09:17:59.904Z,576
2022-07-30T09:19:04.478Z,575.8
2022-07-30T09:20:06.409Z,575.8
2022-07-30T09:21:08.329Z,575.7
2022-07-30T09:22:10.294Z,575.5
2022-07-30T09:23:12.517Z,575.7
2022-07-30T09:24:14.721Z,575.9
2022-07-30T09:25:16.651Z,575.8
2022-07-30T09:26:18.579Z,576
2022-07-30T09:27:20.764Z,575.9
2022-07-30T09:28:23.012Z,575.9
2022-07-30T09:29:24.935Z,575.6
2022-07-30T09:31:32.462Z,575.3
2022-07-30T09:32:34.390Z,575.3
2022-07-30T09:33:37.167Z,575.2
2022-07-30T09:34:40.243Z,575.5
2022-07-30T09:35:42.454Z,575.2
2022-07-30T09:36:44.353Z,575.7
2022-07-30T09:37:46.843Z,575.6
2022-07-30T09:38:49.339Z,576
2022-07-30T09:42:04.875Z,576
2022-07-30T09:43:07.585Z,575.8
2022-07-30T09:44:09.543Z,575.7
2022-07-30T09:45:12.011Z,575.7
2022-07-30T09:46:14.211Z,576.1
2022-07-30T09:47:16.693Z,575.9
2022-07-30T09:48:18.893Z,576.3
2022-07-30T09:49:22.013Z,575.9
2022-07-30T09:52:35.403Z,575.6
2022-07-30T09:55:48.538Z,575.7
2022-07-30T09:59:01.483Z,575.8
2022-07-30T10:00:04.976Z,575.4
2022-07-30T10:01:07.493Z,575.9
2022-07-30T10:02:11.864Z,575.6
2022-07-30T10:04:18.776Z,576.4
2022-07-30T10:05:24.015Z,575.6
2022-07-30T10:06:27.667Z,575.9
2022-07-30T10:08:35.641Z,576.4
2022-07-30T10:11:50.035Z,576.2
2022-07-30T10:12:52.836Z,575.9
2022-07-30T10:13:55.756Z,575.9
2022-07-30T10:14:57.951Z,576.5
2022-07-30T10:16:03.448Z,576.1
2022-07-30T10:17:08.323Z,575.9
2022-07-30T10:18:10.987Z,576.3
2022-07-30T10:20:20.250Z,576.8
2022-07-30T10:22:30.931Z,575.9
2022-07-30T10:24:45.398Z,576
2022-07-30T10:26:52.059Z,576.2
2022-07-30T10:29:00.385Z,576.6
2022-07-30T10:30:07.252Z,576.8
2022-07-30T10:36:39.641Z,575.8
2022-07-30T10:37:43.492Z,575.8
2022-07-30T10:39:55.005Z,575.6
2022-07-30T10:41:02.038Z,576.2
2022-07-30T10:42:07.297Z,576.3
2022-07-30T10:44:17.874Z,575.2
2022-07-30T10:45:20.381Z,575.9
2022-07-30T10:48:36.277Z,575.9
2022-07-30T10:51:50.796Z,575.8
2022-07-30T10:52:54.724Z,575.3
2022-07-30T10:53:58.447Z,575.7
2022-07-30T10:55:01.256Z,575.8
2022-07-30T10:56:03.483Z,576
2022-07-30T10:57:05.952Z,575.8
2022-07-30T10:58:10.318Z,576.1
2022-07-30T11:00:21.384Z,575.4
2022-07-30T11:02:32.092Z,576.3
2022-07-30T11:04:39.562Z,575.6
2022-07-30T11:06:47.776Z,575.5
2022-07-30T11:07:52.564Z,576
2022-07-30T11:13:15.771Z,575.9
2022-07-30T11:15:24.143Z,575.4
2022-07-30T11:16:31.714Z,575.6
2022-07-30T11:17:33.633Z,575.6
2022-07-30T11:21:53.163Z,576.4
2022-07-30T11:24:01.378Z,576
2022-07-30T11:27:16.365Z,575.9
2022-07-30T11:28:19.714Z,575.8
2022-07-30T11:32:37.662Z,575.8
2022-07-30T11:33:41.134Z,576
2022-07-30T11:35:51.815Z,575.6
2022-07-30T11:36:53.997Z,575.2
2022-07-30T11:37:58.401Z,575.7
2022-07-30T11:40:10.169Z,575.1
2022-07-30T11:41:12.420Z,574.9
2022-07-30T11:42:14.906Z,575.8
2022-07-30T11:43:17.105Z,575.7
2022-07-30T11:44:19.308Z,575.3
2022-07-30T11:45:21.508Z,575.5
2022-07-30T11:47:28.716Z,575.6
2022-07-30T11:48:31.213Z,575.5
2022-07-30T11:49:33.812Z,575.4
2022-07-30T11:50:36.312Z,575.3
2022-07-30T11:51:38.781Z,575.3
2022-07-30T11:52:41.257Z,576.1
2022-07-30T11:53:49.184Z,575.8
2022-07-30T11:54:51.111Z,575.6
2022-07-30T11:55:53.662Z,575.9
2022-07-30T11:56:55.618Z,576.1
2022-07-30T11:57:57.809Z,576.3
2022-07-30T11:59:00.301Z,576.5
2022-07-30T12:00:02.512Z,575.3
2022-07-30T12:02:09.728Z,576.8
2022-07-30T12:03:12.074Z,575.8
2022-07-30T12:04:14.284Z,575.7
2022-07-30T12:05:16.187Z,576
2022-07-30T12:06:18.827Z,576
2022-07-30T12:07:21.018Z,576.1
2022-07-30T12:09:29.841Z,576.2
2022-07-30T12:10:32.592Z,576.1
2022-07-30T12:11:34.812Z,576.4
2022-07-30T12:12:37.116Z,576
2022-07-30T12:14:44.590Z,576.4
2022-07-30T12:15:47.066Z,576.6
2022-07-30T12:16:49.546Z,576.3
2022-07-30T12:18:56.739Z,576.5
2022-07-30T12:19:59.212Z,576.1
2022-07-30T12:21:01.418Z,575.9
2022-07-30T12:22:03.621Z,577
2022-07-30T12:23:05.583Z,576.7
2022-07-30T12:24:07.816Z,576.9
2022-07-30T12:25:10.286Z,577.2
2022-07-30T12:26:13.308Z,577
2022-07-30T12:27:15.504Z,577.3
2022-07-30T12:28:17.978Z,576.8
2022-07-30T12:29:20.491Z,576.3
2022-07-30T12:30:22.987Z,576.8
2022-07-30T12:31:25.479Z,577
2022-07-30T12:32:27.669Z,576.5
2022-07-30T12:33:30.212Z,576.8
2022-07-30T12:34:31.877Z,577.2
2022-07-30T12:35:34.366Z,576.4
2022-07-30T12:36:36.307Z,576.5
2022-07-30T12:37:38.488Z,575.8
2022-07-30T12:38:40.973Z,575.9
2022-07-30T12:39:43.175Z,576.3
2022-07-30T12:40:45.375Z,576.6
2022-07-30T12:41:47.880Z,576.6
2022-07-30T12:42:50.076Z,577.1
2022-07-30T12:43:52.284Z,576.5
2022-07-30T12:44:54.187Z,576.6
2022-07-30T12:45:56.382Z,577
2022-07-30T12:46:58.610Z,576.8
2022-07-30T12:50:15.293Z,577.1
2022-07-30T12:51:19.366Z,577.4
2022-07-30T12:53:26.824Z,577.1
2022-07-30T12:54:29.348Z,576.4
2022-07-30T12:55:32.087Z,577.2
2022-07-30T12:56:34.006Z,577.7
2022-07-30T12:57:36.222Z,577.4
2022-07-30T12:58:38.420Z,577.7
2022-07-30T12:59:40.618Z,577.5
2022-07-30T13:00:42.533Z,577
2022-07-30T13:01:45.739Z,577.2
2022-07-30T13:02:48.264Z,577.8
2022-07-30T13:03:50.741Z,577.9
2022-07-30T13:05:57.691Z,577.3
2022-07-30T13:07:00.991Z,577.1
2022-07-30T13:08:03.723Z,577.2
2022-07-30T13:09:05.636Z,577.2
2022-07-30T13:10:08.382Z,577
2022-07-30T13:11:10.885Z,577.1
2022-07-30T13:12:13.088Z,576.5
2022-07-30T13:13:15.021Z,577.4
2022-07-30T13:14:17.514Z,576.8
2022-07-30T13:15:19.984Z,577
2022-07-30T13:16:21.910Z,576.6
2022-07-30T13:17:24.495Z,576.5
2022-07-30T13:18:26.403Z,577
2022-07-30T13:19:28.882Z,577.3
2022-07-30T13:20:33.919Z,576.4
2022-07-30T13:21:36.390Z,576.7
2022-07-30T13:22:38.859Z,577.2
2022-07-30T13:23:41.333Z,576.8
2022-07-30T13:24:43.517Z,577.2
2022-07-30T13:25:45.994Z,576.8
2022-07-30T13:27:53.619Z,576.5
2022-07-30T13:30:03.076Z,577.1
2022-07-30T13:31:05.531Z,577.2
2022-07-30T13:32:07.738Z,576.8
2022-07-30T13:33:10.220Z,576.5
2022-07-30T13:34:12.631Z,576.8
2022-07-30T13:35:14.861Z,576.6
2022-07-30T13:36:17.458Z,577.3
2022-07-30T13:37:19.660Z,577
2022-07-30T13:38:26.062Z,576.7
2022-07-30T13:39:28.238Z,577
2022-07-30T13:40:30.717Z,576.8
2022-07-30T13:41:32.920Z,577.5
2022-07-30T13:42:35.130Z,576.9
2022-07-30T13:43:37.602Z,577.9
2022-07-30T13:44:40.070Z,577.6
2022-07-30T13:45:42.269Z,577.7
2022-07-30T13:46:43.900Z,578.1
2022-07-30T13:47:45.797Z,578.1
2022-07-30T13:48:48.317Z,578.6
2022-07-30T13:49:50.598Z,578.1
2022-07-30T13:50:52.566Z,578.8
2022-07-30T13:51:54.817Z,577.9
2022-07-30T13:54:01.770Z,578
2022-07-30T13:55:04.011Z,578.9
2022-07-30T13:57:11.922Z,578.8
2022-07-30T13:58:14.120Z,578.1
2022-07-30T13:59:16.607Z,578.5
2022-07-30T14:00:19.129Z,578.5
2022-07-30T14:01:21.969Z,578.5
2022-07-30T14:02:23.932Z,578.5
2022-07-30T14:03:25.847Z,578.6
2022-07-30T14:04:28.313Z,578.8
2022-07-30T14:05:30.513Z,578.4
2022-07-30T14:06:32.991Z,578.9
2022-07-30T14:07:35.468Z,579.2
2022-07-30T14:08:37.668Z,578.4
2022-07-30T14:10:44.866Z,579
2022-07-30T14:11:47.044Z,579.2
2022-07-30T14:12:48.978Z,579.1
2022-07-30T14:13:50.879Z,579.1
2022-07-30T14:14:53.362Z,578.7
2022-07-30T14:15:55.575Z,578.9
2022-07-30T14:16:58.057Z,579.3
2022-07-30T14:18:00.557Z,579.2
2022-07-30T14:19:02.815Z,579.6
2022-07-30T14:20:04.944Z,579.3
2022-07-30T14:21:07.416Z,579.8
2022-07-30T14:22:09.888Z,580
2022-07-30T14:23:12.379Z,579.8
2022-07-30T14:24:14.579Z,580.5
2022-07-30T14:25:17.243Z,580.8
2022-07-30T14:26:19.754Z,580.7
2022-07-30T14:27:21.959Z,580.3
2022-07-30T14:28:24.141Z,580.6
2022-07-30T14:29:26.723Z,579.7
2022-07-30T14:30:28.902Z,580.7
2022-07-30T14:31:30.828Z,580.6
2022-07-30T14:32:34.459Z,580.9
2022-07-30T14:33:36.092Z,581.2
2022-07-30T14:34:39.840Z,581.5
2022-07-30T14:35:41.761Z,581.4
2022-07-30T14:36:44.232Z,581.3
2022-07-30T14:37:46.432Z,581.6
2022-07-30T14:38:48.915Z,581.4
2022-07-30T14:39:51.108Z,581.3
2022-07-30T14:40:53.317Z,581.2
2022-07-30T14:41:57.322Z,581.2
2022-07-30T14:43:00.004Z,581.6
2022-07-30T14:44:02.483Z,581.6
2022-07-30T14:45:04.135Z,581.8
2022-07-30T14:46:06.605Z,580.9
2022-07-30T14:47:10.629Z,581.3
2022-07-30T14:48:12.275Z,581.2
2022-07-30T14:50:19.385Z,581.5
2022-07-30T14:52:26.308Z,581.8
2022-07-30T14:53:28.525Z,581.5
2022-07-30T14:54:30.720Z,581.9
2022-07-30T14:55:32.921Z,581.7
2022-07-30T14:56:34.826Z,582
2022-07-30T14:57:37.019Z,581.9
2022-07-30T14:58:39.232Z,581.9
2022-07-30T14:59:41.177Z,581.6
2022-07-30T15:01:48.949Z,582.2
2022-07-30T15:02:51.453Z,582.3
2022-07-30T15:03:53.933Z,582.7
2022-07-30T15:04:56.131Z,582.2
2022-07-30T15:05:58.606Z,582.4
2022-07-30T15:07:01.839Z,582.3
2022-07-30T15:08:04.041Z,582.8
2022-07-30T15:09:06.542Z,582.6
2022-07-30T15:10:08.344Z,582.5
2022-07-30T15:11:11.970Z,582.8
2022-07-30T15:13:25.270Z,582
2022-07-30T15:14:30.036Z,582.3
2022-07-30T15:16:38.061Z,582.2
2022-07-30T15:17:40.534Z,582.4
2022-07-30T15:18:43.015Z,582.6
2022-07-30T15:20:50.218Z,582.3
2022-07-30T15:21:52.685Z,581.9
2022-07-30T15:22:55.166Z,582
2022-07-30T15:23:57.067Z,583
2022-07-30T15:24:59.261Z,582.2
2022-07-30T15:26:01.190Z,582.1
2022-07-30T15:27:03.675Z,581.1
2022-07-30T15:28:06.143Z,581.5
2022-07-30T15:30:13.045Z,581.7
2022-07-30T15:31:15.241Z,581.6
2022-07-30T15:32:17.426Z,581
2022-07-30T15:33:19.620Z,581
2022-07-30T15:34:22.107Z,581.3
2022-07-30T15:35:24.580Z,581.5
2022-07-30T15:36:26.516Z,581.7
2022-07-30T15:37:28.460Z,581.7
2022-07-30T15:38:30.681Z,581.2
2022-07-30T15:39:32.625Z,581.6
2022-07-30T15:40:34.838Z,581.4
2022-07-30T15:41:37.346Z,581.3
2022-07-30T15:42:39.604Z,581
2022-07-30T15:43:42.078Z,581.5
2022-07-30T15:46:54.288Z,581.5
2022-07-30T15:47:56.471Z,581.6
2022-07-30T15:48:58.746Z,581.9
2022-07-30T15:50:01.349Z,581.4
2022-07-30T15:51:03.558Z,581.3